Time;durP1;ratioP1;P1;durP2;ratioP2;P2;SDS_P1;SDS_P2;PMS_P1;PMS_P2;Temp;Humidity;BMP_temperature;BMP_pressure;BME280_temperature;BME280_humidity;BME280_pressure;Samples;Min_cycle;Max_cycle;Signal;HPM_P1;HPM_P2
2023/09/10 00:01:09;;;;;;;9.40;7.30;;;20.50;73.20;;;;;;5031630;28;20047;-76
2023/09/10 00:03:35;;;;;;;12.05;7.90;;;20.50;73.40;;;;;;5031849;28;20028;-74
2023/09/10 00:06:01;;;;;;;13.27;7.45;;;20.50;73.30;;;;;;5031477;28;20103;-74
2023/09/10 00:08:28;;;;;;;12.15;7.50;;;20.40;73.30;;;;;;5031731;28;20533;-74
2023/09/10 00:10:56;;;;;;;10.82;7.20;;;20.40;73.60;;;;;;5031733;28;20029;-74
2023/09/10 00:13:22;;;;;;;10.13;7.20;;;20.30;73.80;;;;;;5031420;28;20026;-75
2023/09/10 00:15:48;;;;;;;13.95;8.30;;;20.20;73.90;;;;;;5031664;28;20025;-74
2023/09/10 00:18:14;;;;;;;13.38;7.85;;;20.30;74.10;;;;;;5031580;28;20380;-75
2023/09/10 00:20:40;;;;;;;12.38;8.10;;;20.40;73.80;;;;;;5031907;28;20098;-76
2023/09/10 00:23:06;;;;;;;12.30;7.60;;;20.50;73.70;;;;;;5031863;28;20554;-75
2023/09/10 00:25:31;;;;;;;12.07;8.30;;;20.50;73.50;;;;;;5031706;28;20025;-74
2023/09/10 00:27:57;;;;;;;10.65;8.10;;;20.50;73.40;;;;;;5031315;28;20076;-75
2023/09/10 00:30:23;;;;;;;9.90;7.47;;;20.50;73.20;;;;;;5031449;28;20029;-74
2023/09/10 00:32:49;;;;;;;10.38;8.55;;;20.50;73.10;;;;;;5031504;28;20037;-74
2023/09/10 00:35:14;;;;;;;11.98;8.68;;;20.50;73.10;;;;;;5031613;28;20013;-75
2023/09/10 00:37:40;;;;;;;11.02;7.95;;;20.60;73.80;;;;;;5031668;28;20429;-75
2023/09/10 00:40:07;;;;;;;12.85;8.13;;;20.60;72.70;;;;;;5031605;28;20434;-75
2023/09/10 00:42:33;;;;;;;9.75;7.20;;;20.70;72.40;;;;;;5031681;28;20395;-75
2023/09/10 00:44:58;;;;;;;12.30;7.68;;;20.80;72.10;;;;;;5032661;28;20025;-75
2023/09/10 00:47:24;;;;;;;12.07;7.68;;;20.70;72.00;;;;;;5031436;28;20033;-75
2023/09/10 00:49:50;;;;;;;9.50;6.90;;;20.70;72.10;;;;;;5031379;28;20035;-74
2023/09/10 00:52:17;;;;;;;9.07;7.03;;;20.70;72.20;;;;;;5034115;28;20112;-74
2023/09/10 00:54:43;;;;;;;9.45;7.38;;;20.70;72.00;;;;;;5034149;28;20029;-74
2023/09/10 00:57:08;;;;;;;10.65;7.13;;;20.80;72.00;;;;;;5034473;28;20364;-74
2023/09/10 00:59:34;;;;;;;12.57;8.02;;;20.80;71.90;;;;;;5051240;28;20116;-74
2023/09/10 01:02:02;;;;;;;10.23;7.30;;;20.70;72.20;;;;;;5034648;28;20021;-74
2023/09/10 01:04:28;;;;;;;12.75;6.90;;;20.70;72.40;;;;;;5034648;28;20138;-73
2023/09/10 01:06:53;;;;;;;10.55;7.63;;;20.70;72.50;;;;;;5052154;28;20025;-74
2023/09/10 01:09:19;;;;;;;10.73;7.40;;;20.70;72.40;;;;;;5051108;28;20025;-75
2023/09/10 01:12:09;;;;;;;11.02;7.43;;;20.70;72.20;;;;;;5051126;28;20029;-75
2023/09/10 01:14:55;;;;;;;13.38;7.70;;;20.70;72.20;;;;;;5034554;28;20123;-75
2023/09/10 01:18:06;;;;;;;14.73;8.55;;;20.40;72.70;;;;;;5052312;28;20025;-75
2023/09/10 01:20:40;;;;;;;12.30;8.27;;;20.30;73.70;;;;;;5050035;28;20025;-74
2023/09/10 01:23:14;;;;;;;11.73;7.87;;;20.20;73.70;;;;;;5054700;28;20387;-75
2023/09/10 01:25:40;;;;;;;10.15;7.55;;;20.30;73.90;;;;;;5038256;28;20458;-75
2023/09/10 01:28:06;;;;;;;11.40;8.77;;;20.20;73.80;;;;;;5037853;28;20052;-75
2023/09/10 01:30:32;;;;;;;8.63;7.57;;;20.20;74.30;;;;;;5054662;28;20102;-75
2023/09/10 01:33:10;;;;;;;9.27;7.38;;;20.20;74.30;;;;;;5038042;28;20471;-75
2023/09/10 01:35:48;;;;;;;9.40;7.03;;;20.20;74.30;;;;;;5037710;28;20054;-76
2023/09/10 01:38:20;;;;;;;10.77;6.95;;;20.30;74.10;;;;;;5037937;28;20074;-76
2023/09/10 01:40:57;;;;;;;11.05;7.45;;;20.50;73.60;;;;;;5037953;28;20017;-75
2023/09/10 01:43:23;;;;;;;11.75;8.27;;;20.40;73.00;;;;;;5038077;28;20137;-75
2023/09/10 01:45:49;;;;;;;10.85;8.05;;;20.40;73.00;;;;;;5037712;28;20016;-75
2023/09/10 01:48:15;;;;;;;11.50;7.75;;;20.40;73.00;;;;;;5037617;28;20064;-75
2023/09/10 01:50:41;;;;;;;13.00;7.50;;;20.40;73.00;;;;;;5054231;28;20033;-75
2023/09/10 01:53:06;;;;;;;9.27;8.07;;;20.50;73.00;;;;;;5054260;28;20106;-75
2023/09/10 01:55:32;;;;;;;14.50;7.60;;;20.50;73.00;;;;;;5054175;28;20483;-75
2023/09/10 01:57:58;;;;;;;7.93;7.13;;;20.40;72.90;;;;;;5054134;28;20052;-75
2023/09/10 02:00:24;;;;;;;11.40;8.52;;;20.50;73.10;;;;;;5053883;28;20458;-76
2023/09/10 02:02:50;;;;;;;11.57;7.32;;;20.40;73.00;;;;;;5053929;28;20028;-75
2023/09/10 02:05:15;;;;;;;13.98;8.15;;;20.40;73.00;;;;;;5053950;28;20042;-75
2023/09/10 02:07:41;;;;;;;11.57;7.25;;;20.40;73.00;;;;;;5053768;28;20459;-75
2023/09/10 02:10:07;;;;;;;11.40;8.40;;;20.30;73.30;;;;;;5053863;28;20067;-76
2023/09/10 02:12:34;;;;;;;9.10;7.63;;;20.30;73.20;;;;;;5053794;28;20036;-75
2023/09/10 02:15:00;;;;;;;12.05;8.30;;;20.30;73.10;;;;;;5037279;28;20024;-76
2023/09/10 02:17:25;;;;;;;11.60;8.25;;;20.30;73.20;;;;;;5040598;28;20025;-75
2023/09/10 02:19:51;;;;;;;12.82;7.93;;;20.10;73.60;;;;;;5054076;28;20021;-76
2023/09/10 02:22:17;;;;;;;8.57;7.70;;;20.00;74.10;;;;;;5054289;28;20123;-75
2023/09/10 02:24:42;;;;;;;9.30;7.82;;;19.90;74.80;;;;;;5053701;28;20020;-75
2023/09/10 02:27:08;;;;;;;10.48;8.32;;;19.80;75.40;;;;;;5053250;28;20041;-74
2023/09/10 02:29:33;;;;;;;10.75;8.98;;;19.70;76.40;;;;;;5036895;28;20443;-74
2023/09/10 02:31:59;;;;;;;15.55;9.00;;;19.60;76.90;;;;;;5036526;28;20475;-75
2023/09/10 02:34:24;;;;;;;13.57;8.82;;;19.40;77.50;;;;;;5036773;28;20029;-75
2023/09/10 02:36:50;;;;;;;11.68;9.30;;;19.40;77.70;;;;;;5036742;28;20045;-75
2023/09/10 02:39:15;;;;;;;10.73;8.80;;;19.40;77.80;;;;;;5036731;28;20074;-75
2023/09/10 02:41:43;;;;;;;11.82;8.70;;;19.40;77.60;;;;;;5036629;28;20044;-75
2023/09/10 02:44:09;;;;;;;13.40;9.60;;;19.40;77.30;;;;;;5036773;28;20024;-75
2023/09/10 02:46:34;;;;;;;13.20;9.90;;;19.40;77.10;;;;;;5036529;28;20017;-76
2023/09/10 02:49:00;;;;;;;12.35;8.93;;;19.40;77.30;;;;;;5036479;28;20083;-75
2023/09/10 02:51:27;;;;;;;12.90;10.05;;;19.30;77.30;;;;;;5036423;28;20032;-75
2023/09/10 02:53:53;;;;;;;10.40;8.57;;;19.50;77.20;;;;;;5036342;28;20078;-75
2023/09/10 02:56:18;;;;;;;10.85;8.77;;;19.50;77.00;;;;;;5036382;28;20017;-75
2023/09/10 02:58:44;;;;;;;12.98;9.40;;;19.60;76.60;;;;;;5036575;28;20025;-74
2023/09/10 03:01:09;;;;;;;15.70;9.27;;;19.50;76.60;;;;;;5036263;28;20486;-74
2023/09/10 03:03:35;;;;;;;15.18;10.38;;;19.40;77.00;;;;;;5035860;28;20170;-74
2023/09/10 03:06:01;;;;;;;12.25;9.32;;;19.40;77.20;;;;;;5036113;28;20452;-75
2023/09/10 03:08:26;;;;;;;13.90;9.85;;;19.30;77.80;;;;;;5053702;28;20033;-76
2023/09/10 03:10:52;;;;;;;10.77;9.68;;;19.20;77.80;;;;;;5036208;28;20054;-76
2023/09/10 03:13:18;;;;;;;13.85;9.48;;;19.10;78.50;;;;;;5035788;28;20390;-75
2023/09/10 03:15:48;;;;;;;14.60;10.15;;;19.10;78.70;;;;;;5035635;28;20022;-76
2023/09/10 03:18:13;;;;;;;9.65;8.75;;;19.10;79.60;;;;;;5053382;28;20166;-76
2023/09/10 03:20:39;;;;;;;14.25;9.68;;;19.10;78.60;;;;;;5035599;28;20116;-76
2023/09/10 03:23:06;;;;;;;13.23;9.23;;;19.10;78.60;;;;;;5053519;28;20036;-75
2023/09/10 03:25:35;;;;;;;13.18;9.82;;;19.10;78.60;;;;;;5052262;28;20025;-75
2023/09/10 03:28:01;;;;;;;11.73;9.35;;;19.20;79.40;;;;;;5035608;28;20495;-76
2023/09/10 03:30:26;;;;;;;10.45;8.82;;;19.10;78.30;;;;;;5035660;28;20032;-75
2023/09/10 03:32:52;;;;;;;10.73;9.10;;;19.20;77.90;;;;;;5035712;28;20037;-77
2023/09/10 03:35:18;;;;;;;12.30;9.63;;;19.20;77.80;;;;;;5035623;28;20171;-75
2023/09/10 03:37:43;;;;;;;14.52;10.05;;;19.20;77.70;;;;;;5035573;28;20086;-76
2023/09/10 03:40:09;;;;;;;13.48;9.65;;;19.10;78.10;;;;;;5035147;28;20017;-76
2023/09/10 03:42:36;;;;;;;10.48;9.40;;;19.10;78.40;;;;;;5035423;28;20025;-75
2023/09/10 03:45:02;;;;;;;11.60;10.02;;;19.00;78.80;;;;;;5035486;28;20025;-75
2023/09/10 03:47:29;;;;;;;11.93;9.75;;;19.00;78.90;;;;;;5035547;28;20025;-75
2023/09/10 03:49:54;;;;;;;11.88;10.65;;;19.00;79.00;;;;;;5053188;28;20154;-74
2023/09/10 03:52:21;;;;;;;10.65;9.55;;;19.00;79.70;;;;;;5035251;28;20049;-76
2023/09/10 03:54:47;;;;;;;14.93;10.32;;;19.00;79.60;;;;;;5035328;28;20024;-75
2023/09/10 03:57:13;;;;;;;13.00;10.10;;;19.00;79.50;;;;;;5052887;28;20440;-75
2023/09/10 03:59:39;;;;;;;10.55;9.55;;;19.00;79.60;;;;;;5052855;28;20025;-75
2023/09/10 04:02:05;;;;;;;13.65;10.00;;;19.00;79.80;;;;;;5052803;28;20025;-77
2023/09/10 04:04:31;;;;;;;11.70;10.50;;;19.00;80.00;;;;;;5035316;28;20078;-75
2023/09/10 04:06:56;;;;;;;17.35;11.43;;;19.00;80.10;;;;;;5034633;28;20040;-75
2023/09/10 04:09:23;;;;;;;12.85;10.65;;;18.90;80.60;;;;;;5035208;28;20394;-76
2023/09/10 04:11:49;;;;;;;12.38;11.07;;;18.80;81.10;;;;;;5035034;28;20439;-76
2023/09/10 04:14:15;;;;;;;12.50;10.60;;;18.70;81.70;;;;;;5035091;28;20083;-76
2023/09/10 04:16:41;;;;;;;11.85;10.73;;;18.80;81.80;;;;;;5034968;28;20017;-75
2023/09/10 04:19:07;;;;;;;12.18;10.88;;;18.80;81.90;;;;;;5034842;28;20028;-75
2023/09/10 04:21:34;;;;;;;12.98;10.88;;;18.70;81.80;;;;;;5035049;28;20429;-75
2023/09/10 04:23:59;;;;;;;12.50;11.00;;;18.70;82.00;;;;;;5030689;28;20021;-75
2023/09/10 04:26:25;;;;;;;13.93;11.05;;;18.60;82.40;;;;;;5034490;28;20079;-75
2023/09/10 04:28:51;;;;;;;12.82;11.10;;;18.50;83.00;;;;;;5034869;28;20487;-76
2023/09/10 04:31:17;;;;;;;13.30;12.00;;;18.50;83.30;;;;;;5051438;28;20036;-75
2023/09/10 04:33:42;;;;;;;14.35;11.15;;;18.50;83.70;;;;;;5035069;28;20029;-75
2023/09/10 04:36:08;;;;;;;13.30;12.00;;;18.50;83.80;;;;;;5034861;28;20459;-74
2023/09/10 04:38:34;;;;;;;13.07;11.70;;;18.50;83.40;;;;;;5034814;28;20025;-74
2023/09/10 04:40:59;;;;;;;12.65;11.45;;;18.50;83.30;;;;;;5034890;28;20078;-75
2023/09/10 04:43:25;;;;;;;13.00;11.77;;;18.50;83.40;;;;;;5051510;28;20412;-75
2023/09/10 04:45:50;;;;;;;12.57;10.57;;;18.40;83.40;;;;;;5034714;28;20471;-75
2023/09/10 04:48:17;;;;;;;12.73;11.50;;;18.50;83.50;;;;;;5034782;28;20044;-75
2023/09/10 04:50:43;;;;;;;13.20;11.23;;;18.50;83.50;;;;;;5034701;28;20028;-75
2023/09/10 04:53:10;;;;;;;13.15;11.82;;;18.50;83.60;;;;;;5055108;28;20102;-76
2023/09/10 04:55:35;;;;;;;11.95;10.75;;;18.60;83.20;;;;;;5038322;28;20024;-75
2023/09/10 04:58:01;;;;;;;12.57;11.32;;;18.60;82.90;;;;;;5056352;28;20025;-75
2023/09/10 05:00:26;;;;;;;16.55;11.50;;;18.60;83.00;;;;;;5038719;28;20426;-75
2023/09/10 05:02:52;;;;;;;11.57;10.48;;;18.60;83.00;;;;;;5038739;28;20025;-74
2023/09/10 05:05:18;;;;;;;11.48;10.38;;;18.60;83.00;;;;;;5038805;28;20049;-75
2023/09/10 05:07:47;;;;;;;11.20;10.10;;;18.50;81.80;;;;;;5038541;28;20372;-75
2023/09/10 05:10:12;;;;;;;12.75;10.90;;;18.60;81.60;;;;;;5038492;28;20033;-74
2023/09/10 05:12:38;;;;;;;13.82;11.05;;;18.70;81.50;;;;;;5055251;28;20028;-75
2023/09/10 05:15:04;;;;;;;13.32;11.55;;;18.70;81.40;;;;;;5038409;28;20501;-74
2023/09/10 05:17:29;;;;;;;12.82;11.15;;;18.70;81.20;;;;;;5038387;28;20479;-74
2023/09/10 05:19:55;;;;;;;11.88;10.60;;;18.80;80.90;;;;;;5038286;28;20017;-75
2023/09/10 05:22:21;;;;;;;11.80;10.60;;;18.80;80.60;;;;;;5038415;28;20028;-75
2023/09/10 05:24:46;;;;;;;12.38;11.18;;;18.70;80.10;;;;;;5038194;28;20025;-76
2023/09/10 05:27:12;;;;;;;11.48;10.40;;;18.70;80.00;;;;;;5054484;28;20499;-75
2023/09/10 05:29:37;;;;;;;12.48;10.43;;;18.80;79.50;;;;;;5038238;28;20024;-75
2023/09/10 05:32:03;;;;;;;11.73;10.60;;;18.90;79.20;;;;;;5047048;28;20083;-75
2023/09/10 05:34:28;;;;;;;11.40;10.23;;;19.00;78.90;;;;;;5043310;28;20024;-75
2023/09/10 05:36:54;;;;;;;11.35;10.20;;;19.00;78.50;;;;;;5048372;28;20025;-74
2023/09/10 05:39:19;;;;;;;12.85;10.77;;;19.20;78.40;;;;;;5040655;28;20032;-75
2023/09/10 05:41:45;;;;;;;13.25;11.43;;;19.20;78.00;;;;;;5038066;28;20028;-74
2023/09/10 05:44:11;;;;;;;14.07;11.05;;;19.20;78.00;;;;;;5037713;28;20044;-75
2023/09/10 05:46:36;;;;;;;11.40;10.30;;;19.20;78.60;;;;;;5055672;28;20063;-74
2023/09/10 05:49:02;;;;;;;12.18;10.90;;;19.20;78.90;;;;;;5037927;28;20061;-75
2023/09/10 05:51:27;;;;;;;11.25;10.05;;;19.20;79.30;;;;;;5055646;28;20497;-75
2023/09/10 05:53:53;;;;;;;12.55;11.27;;;19.30;79.30;;;;;;5054451;28;20513;-76
2023/09/10 05:56:19;;;;;;;11.23;10.13;;;19.30;79.20;;;;;;5055629;28;20348;-75
2023/09/10 05:58:44;;;;;;;16.42;10.55;;;19.40;78.90;;;;;;5043331;28;20045;-74
2023/09/10 06:01:10;;;;;;;11.18;9.55;;;19.50;78.70;;;;;;5057074;28;20474;-78
2023/09/10 06:03:36;;;;;;;13.82;10.52;;;19.70;79.10;;;;;;5036969;28;20041;-76
2023/09/10 06:06:01;;;;;;;13.38;9.80;;;19.90;78.30;;;;;;5037310;28;20389;-75
2023/09/10 06:08:29;;;;;;;14.55;11.00;;;20.10;77.40;;;;;;5036846;28;20039;-76
2023/09/10 06:10:55;;;;;;;11.48;10.27;;;20.20;76.80;;;;;;5037379;28;20025;-77
2023/09/10 06:13:21;;;;;;;12.52;10.88;;;20.30;76.70;;;;;;5037288;28;20025;-76
2023/09/10 06:15:47;;;;;;;12.10;11.00;;;20.30;76.80;;;;;;5037124;28;20013;-77
2023/09/10 06:18:12;;;;;;;12.38;10.63;;;20.30;76.90;;;;;;5037373;28;20029;-77
2023/09/10 06:20:38;;;;;;;12.00;10.80;;;20.40;76.70;;;;;;5036868;28;20036;-76
2023/09/10 06:23:04;;;;;;;12.20;11.05;;;20.50;76.80;;;;;;5054793;28;20368;-77
2023/09/10 06:25:29;;;;;;;11.85;10.75;;;20.40;77.00;;;;;;5054771;28;20017;-76
2023/09/10 06:27:55;;;;;;;13.35;12.05;;;20.50;77.10;;;;;;5054518;28;20053;-76
2023/09/10 06:30:22;;;;;;;11.68;10.48;;;20.50;77.30;;;;;;5054941;28;20058;-76
2023/09/10 06:32:51;;;;;;;12.40;10.82;;;20.50;77.30;;;;;;5038897;28;20064;-75
2023/09/10 06:35:17;;;;;;;11.82;10.27;;;20.60;77.10;;;;;;5036860;28;20114;-76
2023/09/10 06:37:43;;;;;;;11.85;10.50;;;20.70;77.10;;;;;;5036858;28;20025;-77
2023/09/10 06:40:10;;;;;;;16.15;10.95;;;20.80;76.70;;;;;;5036728;28;20021;-77
2023/09/10 06:42:35;;;;;;;11.85;10.50;;;20.90;76.50;;;;;;5053494;28;20383;-77
2023/09/10 06:45:01;;;;;;;15.73;10.77;;;21.10;76.20;;;;;;5054406;28;20017;-76
2023/09/10 06:47:27;;;;;;;11.32;10.10;;;21.10;75.70;;;;;;5053837;28;20382;-76
2023/09/10 06:49:53;;;;;;;12.38;10.38;;;21.20;76.10;;;;;;5036576;28;20432;-76
2023/09/10 06:52:18;;;;;;;13.10;10.32;;;21.30;75.30;;;;;;5036575;28;20422;-76
2023/09/10 06:54:44;;;;;;;11.32;10.27;;;21.40;75.00;;;;;;5036824;28;20021;-77
2023/09/10 06:57:09;;;;;;;12.23;11.00;;;21.50;74.70;;;;;;5041576;28;20021;-76
2023/09/10 06:59:35;;;;;;;11.20;10.20;;;21.70;75.00;;;;;;5036502;28;20431;-76
2023/09/10 07:02:02;;;;;;;11.65;10.35;;;21.60;75.20;;;;;;5019909;28;20025;-76
2023/09/10 07:04:28;;;;;;;11.70;10.40;;;21.70;74.90;;;;;;5036164;28;20038;-76
2023/09/10 07:06:54;;;;;;;14.38;12.38;;;21.80;74.40;;;;;;5036306;28;20021;-78
2023/09/10 07:09:22;;;;;;;18.73;11.90;;;21.90;73.80;;;;;;5019275;28;20040;-77
2023/09/10 07:11:51;;;;;;;15.95;11.20;;;22.00;73.20;;;;;;5036369;28;20055;-78
2023/09/10 07:14:17;;;;;;;11.18;9.98;;;22.10;73.00;;;;;;5035568;28;20059;-78
2023/09/10 07:16:43;;;;;;;13.43;10.80;;;22.20;72.50;;;;;;5035728;28;20491;-75
2023/09/10 07:19:09;;;;;;;11.70;10.52;;;22.50;72.00;;;;;;5036033;28;20025;-76
2023/09/10 07:21:34;;;;;;;12.18;10.25;;;22.60;71.30;;;;;;5035984;28;20375;-76
2023/09/10 07:24:02;;;;;;;12.50;11.13;;;22.80;71.00;;;;;;5035982;28;20032;-76
2023/09/10 07:26:28;;;;;;;11.45;10.25;;;22.90;70.60;;;;;;5035540;28;20021;-76
2023/09/10 07:28:54;;;;;;;15.98;10.38;;;23.00;70.30;;;;;;5035678;28;20055;-77
2023/09/10 07:31:19;;;;;;;11.23;10.13;;;23.20;69.80;;;;;;5035717;28;20017;-78
2023/09/10 07:33:45;;;;;;;9.93;8.93;;;23.30;69.60;;;;;;5035015;28;20021;-75
2023/09/10 07:36:11;;;;;;;10.35;8.98;;;23.40;68.90;;;;;;5053060;28;20033;-76
2023/09/10 07:38:36;;;;;;;12.75;9.57;;;23.40;68.10;;;;;;5035537;28;20028;-77
2023/09/10 07:41:03;;;;;;;13.55;10.18;;;23.40;67.90;;;;;;5035319;28;20490;-76
2023/09/10 07:43:28;;;;;;;16.25;10.77;;;23.40;68.10;;;;;;5035321;28;20025;-77
2023/09/10 07:45:54;;;;;;;10.90;8.82;;;23.50;68.00;;;;;;5035489;28;20086;-77
2023/09/10 07:48:19;;;;;;;12.75;9.77;;;23.50;67.80;;;;;;5035466;28;20040;-77
2023/09/10 07:50:59;;;;;;;14.98;9.88;;;23.60;67.50;;;;;;5035605;28;20629;-77
2023/09/10 07:53:25;;;;;;;10.63;9.52;;;23.80;67.00;;;;;;5035006;28;20052;-76
2023/09/10 07:55:51;;;;;;;13.35;9.73;;;23.90;67.00;;;;;;5035112;28;20017;-78
2023/09/10 07:58:17;;;;;;;9.82;9.02;;;24.00;66.60;;;;;;5035309;28;20029;-77
2023/09/10 08:00:42;;;;;;;9.75;8.85;;;24.10;66.40;;;;;;5035260;28;20025;-76
2023/09/10 08:03:08;;;;;;;11.40;10.05;;;24.30;65.90;;;;;;5035277;28;20028;-76
2023/09/10 08:05:34;;;;;;;12.48;10.40;;;24.40;65.80;;;;;;5035118;28;20029;-76
2023/09/10 08:08:02;;;;;;;10.45;9.27;;;24.40;66.90;;;;;;5034981;28;20536;-76
2023/09/10 08:10:29;;;;;;;11.32;10.20;;;24.40;66.40;;;;;;5035238;28;20032;-76
2023/09/10 08:12:55;;;;;;;11.20;9.38;;;24.40;65.70;;;;;;5035175;28;20029;-76
2023/09/10 08:15:20;;;;;;;12.57;10.05;;;24.40;65.40;;;;;;5039032;28;20463;-76
2023/09/10 08:17:49;;;;;;;9.60;8.60;;;24.30;65.90;;;;;;5036470;28;20316;-77
2023/09/10 08:20:16;;;;;;;12.10;8.90;;;24.40;65.80;;;;;;5034939;28;20077;-77
2023/09/10 08:22:43;;;;;;;10.77;9.57;;;24.60;65.30;;;;;;5034971;28;20021;-77
2023/09/10 08:25:09;;;;;;;11.18;9.98;;;24.70;65.30;;;;;;5034801;28;20382;-77
2023/09/10 08:27:35;;;;;;;13.73;10.80;;;24.70;65.10;;;;;;5034600;28;20144;-77
2023/09/10 08:30:05;;;;;;;13.90;10.60;;;24.70;65.50;;;;;;5034716;28;20124;-77
2023/09/10 08:32:32;;;;;;;16.55;10.27;;;24.70;65.10;;;;;;5034976;28;20021;-77
2023/09/10 08:34:58;;;;;;;11.20;10.10;;;24.80;65.20;;;;;;5034986;28;20467;-77
2023/09/10 08:37:24;;;;;;;9.88;8.82;;;24.90;65.70;;;;;;5034789;28;20040;-77
2023/09/10 08:39:50;;;;;;;12.23;8.88;;;25.00;64.80;;;;;;5034010;28;20025;-76
2023/09/10 08:42:30;;;;;;;9.70;8.68;;;25.20;63.90;;;;;;5052370;28;20029;-76
2023/09/10 08:45:00;;;;;;;9.35;8.48;;;25.40;63.40;;;;;;5034620;28;20057;-77
2023/09/10 08:47:34;;;;;;;11.38;8.98;;;25.60;62.30;;;;;;5034614;28;20073;-77
2023/09/10 08:50:08;;;;;;;9.63;8.73;;;25.80;62.40;;;;;;5034909;28;20116;-77
2023/09/10 08:52:39;;;;;;;9.15;8.30;;;26.00;61.60;;;;;;5034718;28;20025;-76
2023/09/10 08:55:06;;;;;;;12.27;9.45;;;26.10;60.80;;;;;;5034762;28;20078;-76
2023/09/10 08:57:33;;;;;;;11.10;10.05;;;26.30;60.80;;;;;;5034582;28;20067;-76
2023/09/10 08:59:59;;;;;;;12.50;10.57;;;26.50;60.60;;;;;;5052274;28;20021;-77
2023/09/10 09:02:25;;;;;;;12.88;10.98;;;26.50;59.80;;;;;;5034137;28;20048;-77
2023/09/10 09:04:51;;;;;;;10.50;9.50;;;26.40;60.20;;;;;;5034289;28;20486;-75
2023/09/10 09:07:20;;;;;;;10.88;9.65;;;26.40;61.00;;;;;;5034577;28;20116;-76
2023/09/10 09:09:53;;;;;;;11.52;9.55;;;26.60;59.80;;;;;;5018018;28;20403;-74
2023/09/10 09:12:20;;;;;;;12.00;9.80;;;26.70;59.80;;;;;;5034438;28;20021;-77
2023/09/10 09:14:48;;;;;;;11.35;10.13;;;26.80;59.00;;;;;;5034547;28;20102;-76
2023/09/10 09:17:15;;;;;;;13.85;10.50;;;26.90;58.30;;;;;;5034550;28;20029;-76
2023/09/10 09:19:46;;;;;;;10.10;9.07;;;26.90;58.60;;;;;;5034610;28;20036;-77
2023/09/10 09:22:15;;;;;;;13.18;10.35;;;27.10;58.90;;;;;;5052042;28;20039;-77
2023/09/10 09:24:41;;;;;;;12.38;9.38;;;27.30;58.00;;;;;;5034022;28;20086;-76
2023/09/10 09:27:08;;;;;;;9.63;8.57;;;27.40;57.00;;;;;;5050282;28;20040;-77
2023/09/10 09:29:34;;;;;;;9.05;8.18;;;27.50;57.10;;;;;;5034476;28;20489;-76
2023/09/10 09:32:00;;;;;;;13.02;9.88;;;27.70;56.40;;;;;;5052037;28;20049;-75
2023/09/10 09:34:25;;;;;;;10.45;8.68;;;27.70;55.30;;;;;;5035654;28;20036;-76
2023/09/10 09:36:51;;;;;;;9.57;8.50;;;27.80;54.00;;;;;;5034536;28;20053;-74
2023/09/10 09:39:20;;;;;;;11.05;8.60;;;28.00;54.70;;;;;;5036980;28;20060;-74
2023/09/10 09:41:53;;;;;;;14.95;8.70;;;28.20;53.90;;;;;;5037872;28;20102;-74
2023/09/10 09:44:20;;;;;;;10.60;8.30;;;28.20;51.40;;;;;;5037384;28;20028;-75
2023/09/10 09:46:47;;;;;;;10.93;9.40;;;28.40;51.10;;;;;;5037519;28;20025;-73
2023/09/10 09:49:12;;;;;;;9.82;8.82;;;28.40;51.60;;;;;;5037518;28;20387;-74
2023/09/10 09:51:40;;;;;;;11.23;8.50;;;28.50;50.80;;;;;;5037334;28;20029;-74
2023/09/10 09:54:07;;;;;;;11.02;8.85;;;28.50;51.10;;;;;;5037307;28;20437;-74
2023/09/10 09:56:33;;;;;;;13.27;9.05;;;28.50;50.70;;;;;;5037433;28;20435;-75
2023/09/10 09:58:59;;;;;;;11.30;8.85;;;28.40;49.10;;;;;;5037604;28;20067;-76
2023/09/10 10:01:25;;;;;;;9.90;7.40;;;28.40;49.90;;;;;;5037404;28;20104;-77
2023/09/10 10:03:52;;;;;;;10.43;9.18;;;28.40;50.90;;;;;;5037355;28;20117;-78
2023/09/10 10:06:18;;;;;;;11.27;7.45;;;28.50;50.60;;;;;;5037340;28;20021;-76
2023/09/10 10:08:51;;;;;;;9.18;8.27;;;28.80;50.50;;;;;;5037124;28;20364;-75
2023/09/10 10:11:28;;;;;;;9.43;8.20;;;29.00;50.30;;;;;;5037248;28;20021;-75
2023/09/10 10:13:54;;;;;;;8.95;8.07;;;29.20;50.20;;;;;;5036969;28;20090;-75
2023/09/10 10:16:21;;;;;;;9.15;7.28;;;29.20;48.60;;;;;;5037215;28;20387;-75
2023/09/10 10:18:47;;;;;;;8.13;7.40;;;29.40;49.00;;;;;;5037179;28;20083;-75
2023/09/10 10:21:13;;;;;;;8.02;7.22;;;29.70;48.40;;;;;;5037000;28;20032;-75
2023/09/10 10:23:40;;;;;;;9.50;7.03;;;30.00;46.90;;;;;;5036886;28;20062;-75
2023/09/10 10:26:06;;;;;;;8.93;6.60;;;30.30;45.30;;;;;;5037061;28;20025;-75
2023/09/10 10:28:35;;;;;;;9.55;6.80;;;30.50;44.00;;;;;;5054445;28;20049;-75
2023/09/10 10:31:07;;;;;;;8.55;7.45;;;30.70;42.70;;;;;;5054505;28;20124;-76
2023/09/10 10:33:36;;;;;;;7.40;6.68;;;30.90;42.50;;;;;;5037028;28;20033;-76
2023/09/10 10:36:14;;;;;;;6.50;5.90;;;30.90;40.50;;;;;;5036804;28;20489;-74
2023/09/10 10:38:43;;;;;;;7.20;6.05;;;31.10;40.50;;;;;;5036947;28;20044;-73
2023/09/10 10:41:22;;;;;;;8.48;6.15;;;31.20;40.90;;;;;;5054420;28;20463;-73
2023/09/10 10:43:55;;;;;;;10.40;6.45;;;31.40;40.50;;;;;;5036922;28;20033;-74
2023/09/10 10:46:25;;;;;;;12.80;6.65;;;31.50;39.60;;;;;;5036829;28;20091;-74
2023/09/10 10:48:51;;;;;;;9.57;6.40;;;31.60;39.90;;;;;;5036256;28;20124;-74
2023/09/10 10:51:18;;;;;;;7.13;5.50;;;30.90;38.70;;;;;;5037514;28;20117;-75
2023/09/10 10:53:45;;;;;;;6.15;5.57;;;30.70;36.30;;;;;;5036676;28;20611;-75
2023/09/10 10:56:11;;;;;;;11.52;6.45;;;30.50;37.50;;;;;;5036893;28;20047;-74
2023/09/10 10:58:39;;;;;;;6.68;6.00;;;30.70;37.30;;;;;;5036830;28;20025;-74
2023/09/10 11:01:05;;;;;;;4.85;4.43;;;30.90;36.60;;;;;;5036316;28;20463;-74
2023/09/10 11:03:32;;;;;;;7.22;5.50;;;31.10;35.10;;;;;;5036440;28;20052;-75
2023/09/10 11:06:04;;;;;;;7.75;5.10;;;31.40;36.70;;;;;;5036068;28;20174;-72
2023/09/10 11:08:36;;;;;;;5.25;4.53;;;31.20;36.70;;;;;;5036248;28;20478;-75
2023/09/10 11:11:05;;;;;;;6.18;4.78;;;31.40;35.40;;;;;;5053903;28;20058;-74
2023/09/10 11:13:32;;;;;;;5.43;4.93;;;31.40;34.70;;;;;;5036175;28;20320;-74
2023/09/10 11:16:04;;;;;;;7.95;5.55;;;31.70;33.30;;;;;;5031182;28;20030;-73
2023/09/10 11:18:35;;;;;;;6.88;5.18;;;31.90;33.20;;;;;;5052632;28;20494;-72
2023/09/10 11:21:02;;;;;;;6.68;4.82;;;32.30;33.50;;;;;;5052115;28;20033;-73
2023/09/10 11:23:28;;;;;;;7.32;5.07;;;32.60;34.10;;;;;;5053413;28;20021;-71
2023/09/10 11:26:13;;;;;;;9.45;5.60;;;33.00;34.20;;;;;;5053396;28;20039;-71
2023/09/10 11:28:52;;;;;;;8.57;5.22;;;33.30;32.80;;;;;;5035422;28;20440;-71
2023/09/10 11:31:39;;;;;;;9.90;5.38;;;33.10;32.20;;;;;;5053650;28;20379;-73
2023/09/10 11:34:17;;;;;;;7.00;5.55;;;32.70;31.70;;;;;;5053348;28;20428;-74
2023/09/10 11:36:47;;;;;;;6.63;5.30;;;32.80;31.80;;;;;;5053204;28;20407;-71
2023/09/10 11:39:15;;;;;;;7.85;5.05;;;32.90;32.00;;;;;;5053265;28;20084;-72
2023/09/10 11:41:43;;;;;;;8.43;5.63;;;32.80;32.80;;;;;;5052948;28;20104;-71
2023/09/10 11:44:08;;;;;;;10.90;6.18;;;32.70;33.30;;;;;;5053194;28;20025;-71
2023/09/10 11:46:35;;;;;;;8.95;5.80;;;32.70;33.20;;;;;;5052994;28;20025;-72
2023/09/10 11:49:00;;;;;;;6.53;5.50;;;32.50;33.90;;;;;;5052962;28;20435;-72
2023/09/10 11:51:26;;;;;;;6.20;5.25;;;32.60;32.20;;;;;;5034840;28;20021;-71
2023/09/10 11:53:52;;;;;;;9.40;5.00;;;32.80;32.30;;;;;;5052674;28;20032;-71
2023/09/10 11:56:17;;;;;;;6.50;5.25;;;32.90;31.10;;;;;;5052889;28;20406;-73
2023/09/10 11:58:43;;;;;;;9.32;4.97;;;33.10;31.60;;;;;;5031598;28;20395;-72
2023/09/10 12:01:10;;;;;;;5.45;4.80;;;32.90;30.20;;;;;;5032728;28;20044;-76
2023/09/10 12:03:36;;;;;;;8.93;5.00;;;32.60;30.20;;;;;;5032136;28;20124;-75
2023/09/10 12:06:02;;;;;;;6.20;5.60;;;32.70;29.10;;;;;;5031907;28;20109;-75
2023/09/10 12:08:27;;;;;;;5.40;4.70;;;32.70;28.00;;;;;;5031879;28;20396;-75
2023/09/10 12:11:03;;;;;;;8.27;6.57;;;32.40;29.20;;;;;;5032084;28;20029;-77
2023/09/10 12:13:30;;;;;;;6.90;6.18;;;32.70;28.70;;;;;;5031870;28;20025;-77
2023/09/10 12:15:56;;;;;;;8.68;6.65;;;33.10;27.80;;;;;;5031574;28;20022;-76
2023/09/10 12:18:22;;;;;;;7.82;5.63;;;33.50;27.40;;;;;;5034106;28;20067;-75
2023/09/10 12:20:48;;;;;;;6.03;4.22;;;33.80;25.40;;;;;;5032862;28;20087;-76
2023/09/10 12:23:14;;;;;;;6.38;4.70;;;34.00;25.70;;;;;;5033234;28;20392;-76
2023/09/10 12:25:40;;;;;;;5.50;4.60;;;34.00;26.70;;;;;;5031828;28;20033;-76
2023/09/10 12:28:09;;;;;;;6.03;4.32;;;33.90;25.80;;;;;;5050197;28;20095;-76
2023/09/10 12:30:36;;;;;;;6.72;4.88;;;33.90;26.80;;;;;;5054876;28;20033;-76
2023/09/10 12:33:02;;;;;;;5.25;4.68;;;34.00;26.60;;;;;;5054865;28;20023;-75
2023/09/10 12:35:28;;;;;;;5.25;4.22;;;33.90;26.90;;;;;;5054838;28;20095;-75